Time;durP1;ratioP1;P1;durP2;ratioP2;P2;SDS_P1;SDS_P2;PMS_P1;PMS_P2;Temp;Humidity;BMP_temperature;BMP_pressure;BME280_temperature;BME280_humidity;BME280_pressure;Samples;Min_cycle;Max_cycle;Signal;HPM_P1;HPM_P2
2022/03/02 00:02:08;;;;;;;26.23;16.15;;;;;;;1.86;73.52;101241.16;5080637;28;20028;-90
2022/03/02 00:04:33;;;;;;;29.45;16.55;;;;;;;1.83;73.98;101234.06;5081607;28;20080;-89
2022/03/02 00:06:59;;;;;;;27.98;16.45;;;;;;;1.83;73.99;101241.97;5089028;28;20030;-89
2022/03/02 00:09:24;;;;;;;31.30;17.13;;;;;;;1.83;74.46;101241.09;5098837;28;20079;-90
2022/03/02 00:11:49;;;;;;;28.27;15.95;;;;;;;1.83;74.85;101231.44;5097744;28;20037;-90
2022/03/02 00:14:15;;;;;;;31.00;17.23;;;;;;;1.78;75.58;101222.53;5098791;28;20012;-88
2022/03/02 00:16:41;;;;;;;28.55;16.88;;;;;;;1.75;75.25;101228.63;5094086;28;20374;-90
2022/03/02 00:19:08;;;;;;;31.63;17.38;;;;;;;1.77;75.32;101223.41;5081132;28;20052;-90
2022/03/02 00:21:33;;;;;;;28.65;16.35;;;;;;;1.82;74.77;101228.78;5082886;28;20100;-90
2022/03/02 00:24:03;;;;;;;28.77;16.42;;;;;;;1.84;75.26;101227.94;5083313;28;20555;-89
2022/03/02 00:26:34;;;;;;;28.08;15.90;;;;;;;1.85;75.48;101221.84;5080598;28;20027;-90
2022/03/02 00:29:05;;;;;;;29.13;15.98;;;;;;;1.86;75.21;101226.22;5081501;28;20115;-90
2022/03/02 00:31:46;;;;;;;25.63;15.27;;;;;;;1.85;73.70;101219.22;5080994;28;20115;-90
2022/03/02 00:34:21;;;;;;;26.27;15.13;;;;;;;1.85;72.76;101220.94;5082211;28;20040;-89
2022/03/02 00:37:14;;;;;;;25.17;14.38;;;;;;;1.86;70.64;101226.22;5080544;28;20033;-90
2022/03/02 00:39:57;;;;;;;22.63;12.85;;;;;;;1.86;69.48;101228.88;5081494;28;20021;-90
2022/03/02 00:42:36;;;;;;;;;;;;;;;;;;;;;
2022/03/02 00:45:05;;;;;;;21.95;13.50;;;;;;;1.87;70.41;101228.03;5082318;28;20107;-90
2022/03/02 00:47:57;;;;;;;25.95;14.68;;;;;;;1.87;71.36;101228.03;5080209;28;20469;-90
2022/03/02 00:50:39;;;;;;;29.70;16.90;;;;;;;1.70;77.34;101230.28;5081108;28;20055;-89
2022/03/02 00:53:10;;;;;;;30.45;16.75;;;;;;;1.59;79.73;101227.44;5080616;28;20532;-90
2022/03/02 00:55:40;;;;;;;28.98;17.08;;;;;;;1.63;81.82;101233.63;5079877;28;20114;-90
2022/03/02 00:58:06;;;;;;;32.80;18.23;;;;;;;1.50;85.27;101227.19;5080846;28;20028;-89
2022/03/02 01:01:08;;;;;;;27.25;17.60;;;;;;;1.39;87.76;101219.94;5078443;28;20366;-89
2022/03/02 01:03:33;;;;;;;30.73;17.85;;;;;;;1.32;89.50;101215.38;5080896;28;20084;-89
2022/03/02 01:06:00;;;;;;;27.83;17.35;;;;;;;1.24;90.56;101211.72;5080409;28;20048;-89
2022/03/02 01:08:26;;;;;;;31.35;18.73;;;;;;;1.23;92.95;101210.81;5080926;28;20051;-89
2022/03/02 01:10:51;;;;;;;30.67;17.73;;;;;;;1.16;92.72;101212.38;5079952;28;20439;-90
2022/03/02 01:13:16;;;;;;;30.38;17.70;;;;;;;1.17;90.90;101203.66;5082103;28;20026;-90
2022/03/02 01:15:42;;;;;;;29.20;16.85;;;;;;;1.27;91.44;101204.75;5080429;28;20027;-89
2022/03/02 01:18:07;;;;;;;30.75;17.33;;;;;;;1.35;90.70;101202.31;5080948;28;20043;-88
2022/03/02 01:20:33;;;;;;;27.48;16.50;;;;;;;1.39;89.13;101198.88;5082014;28;20020;-90
2022/03/02 01:22:58;;;;;;;29.25;16.73;;;;;;;1.43;86.75;101191.97;5083557;28;20145;-90
2022/03/02 01:25:23;;;;;;;26.40;15.57;;;;;;;1.42;85.18;101180.53;5083192;28;20047;-90
2022/03/02 01:27:49;;;;;;;27.83;15.95;;;;;;;1.47;83.96;101175.38;5080547;28;20110;-89
2022/03/02 01:30:14;;;;;;;27.85;15.68;;;;;;;1.45;83.73;101172.72;5080852;28;20024;-90
2022/03/02 01:32:40;;;;;;;26.52;15.73;;;;;;;1.38;84.07;101173.44;5081000;28;20086;-90
2022/03/02 01:35:07;;;;;;;27.08;15.75;;;;;;;1.32;84.11;101170.66;5081764;28;20040;-89
2022/03/02 01:37:32;;;;;;;28.67;17.08;;;;;;;1.32;84.55;101176.81;5080214;28;20029;-88
2022/03/02 01:39:58;;;;;;;29.15;17.05;;;;;;;1.34;85.46;101171.59;5081086;28;20066;-89
2022/03/02 01:42:23;;;;;;;26.50;15.65;;;;;;;1.38;85.24;101164.66;5078010;28;20017;-90
2022/03/02 01:44:49;;;;;;;29.50;15.40;;;;;;;1.37;84.11;101174.28;5080643;28;20037;-90
2022/03/02 01:47:14;;;;;;;27.42;15.70;;;;;;;1.39;83.26;101167.28;5081277;28;20017;-89
2022/03/02 01:49:40;;;;;;;27.52;15.52;;;;;;;1.37;83.03;101163.75;5082227;28;20166;-88
2022/03/02 01:52:05;;;;;;;29.25;16.60;;;;;;;1.33;85.25;101161.91;5082285;28;20020;-90
2022/03/02 01:54:30;;;;;;;27.92;16.00;;;;;;;1.34;85.75;101168.97;5081828;28;20115;-90
2022/03/02 01:56:55;;;;;;;27.90;15.70;;;;;;;1.28;85.45;101159.19;5081270;28;20052;-89
2022/03/02 01:59:21;;;;;;;27.45;15.13;;;;;;;1.31;83.99;101158.38;5080736;28;20044;-89
2022/03/02 02:01:47;;;;;;;24.42;14.07;;;;;;;1.33;83.05;101162.81;5081238;28;20081;-90
2022/03/02 02:04:13;;;;;;;26.98;15.38;;;;;;;1.33;84.27;101156.66;5079608;28;20025;-89
2022/03/02 02:06:38;;;;;;;27.42;15.77;;;;;;;1.37;84.08;101152.31;5079789;28;20055;-90
2022/03/02 02:09:06;;;;;;;29.15;15.77;;;;;;;1.30;86.04;101151.31;5079573;28;20027;-90
2022/03/02 02:11:32;;;;;;;27.15;16.00;;;;;;;1.25;86.20;101151.22;5081441;28;20117;-89
2022/03/02 02:13:57;;;;;;;28.17;16.00;;;;;;;1.28;86.41;101145.13;5079578;28;20028;-89
2022/03/02 02:16:24;;;;;;;28.58;15.93;;;;;;;1.32;86.66;101139.97;5078763;28;20397;-89
2022/03/02 02:18:50;;;;;;;27.85;16.42;;;;;;;1.33;85.68;101139.13;5080801;28;20470;-89
2022/03/02 02:21:16;;;;;;;28.35;15.38;;;;;;;1.28;85.33;101137.25;5079016;28;20024;-89
2022/03/02 02:23:41;;;;;;;27.00;16.05;;;;;;;1.30;84.80;101139.06;5078948;28;20016;-89
2022/03/02 02:26:07;;;;;;;25.85;15.57;;;;;;;1.31;85.39;101137.31;5078052;28;20016;-88
2022/03/02 02:28:33;;;;;;;26.73;15.77;;;;;;;1.33;84.90;101135.59;5077901;28;20032;-90
2022/03/02 02:31:00;;;;;;;24.08;15.20;;;;;;;1.32;85.14;101131.19;5078684;28;20016;-89
2022/03/02 02:33:26;;;;;;;25.38;15.02;;;;;;;1.26;85.54;101128.44;5077883;28;20461;-90
2022/03/02 02:35:52;;;;;;;27.15;15.52;;;;;;;1.19;85.00;101123.00;5081309;28;20016;-89
2022/03/02 02:38:18;;;;;;;26.55;14.90;;;;;;;1.19;84.91;101120.38;5080501;28;20032;-89
2022/03/02 02:40:44;;;;;;;29.70;15.45;;;;;;;1.20;84.36;101130.06;5082025;28;20052;-89
2022/03/02 02:43:09;;;;;;;25.98;14.90;;;;;;;1.24;84.46;101127.50;5081608;28;20119;-88
2022/03/02 02:45:35;;;;;;;25.23;14.43;;;;;;;1.22;84.24;101128.34;5081075;28;20020;-90
2022/03/02 02:48:00;;;;;;;24.50;14.80;;;;;;;1.24;83.57;101127.50;5080318;28;20024;-87
2022/03/02 02:50:31;;;;;;;24.50;14.60;;;;;;;1.20;82.85;101130.06;5082409;28;20124;-89
2022/03/02 02:53:00;;;;;;;23.02;13.40;;;;;;;1.15;83.96;101131.72;5080816;28;20020;-89
2022/03/02 02:55:27;;;;;;;24.08;14.40;;;;;;;1.13;84.45;101129.91;5080787;28;20120;-89
2022/03/02 02:57:54;;;;;;;24.90;14.75;;;;;;;1.05;86.97;101121.81;5080294;28;20029;-89
2022/03/02 03:00:21;;;;;;;29.05;16.23;;;;;;;0.92;90.53;101121.53;5079859;28;20393;-89
2022/03/02 03:02:48;;;;;;;26.67;15.32;;;;;;;0.86;91.20;101122.28;5080672;28;20166;-89
2022/03/02 03:05:16;;;;;;;26.00;14.82;;;;;;;0.95;89.83;101116.38;5081677;28;20017;-89
2022/03/02 03:07:43;;;;;;;24.77;14.48;;;;;;;0.99;89.62;101114.69;5082101;28;20027;-89
2022/03/02 03:10:10;;;;;;;22.75;13.57;;;;;;;0.96;85.36;101115.50;5083231;28;20036;-89
2022/03/02 03:12:36;;;;;;;24.90;13.88;;;;;;;1.01;84.64;101118.22;5080386;28;20119;-89
2022/03/02 03:15:08;;;;;;;21.08;13.18;;;;;;;1.04;84.22;101112.16;5080762;28;20052;-89
2022/03/02 03:17:36;;;;;;;24.00;12.95;;;;;;;1.08;83.25;101108.75;5081636;28;20023;-89
2022/03/02 03:20:04;;;;;;;23.50;13.30;;;;;;;1.11;83.77;101108.78;5083552;28;20081;-88
2022/03/02 03:22:29;;;;;;;23.40;13.82;;;;;;;1.05;82.98;101111.31;5081914;28;20048;-90
2022/03/02 03:24:54;;;;;;;23.13;13.90;;;;;;;1.02;84.12;101113.84;5082846;28;20032;-89
2022/03/02 03:27:20;;;;;;;27.42;13.15;;;;;;;1.03;85.56;101113.88;5085512;28;20103;-89
2022/03/02 03:29:45;;;;;;;24.60;12.65;;;;;;;1.07;85.83;101118.38;5085494;28;20034;-90
2022/03/02 03:32:10;;;;;;;23.65;12.98;;;;;;;1.02;84.27;101127.00;5086093;28;20043;-90
2022/03/02 03:34:36;;;;;;;21.48;12.38;;;;;;;1.07;84.24;101112.22;5099157;28;20011;-88
2022/03/02 03:37:01;;;;;;;21.63;12.52;;;;;;;1.10;85.21;101107.94;5099553;28;20013;-90
2022/03/02 03:39:26;;;;;;;23.20;12.98;;;;;;;1.09;85.07;101102.63;5099280;28;20021;-90
2022/03/02 03:41:52;;;;;;;24.02;12.98;;;;;;;1.06;84.49;101106.06;5099363;28;20097;-89
2022/03/02 03:44:17;;;;;;;23.48;12.00;;;;;;;1.00;83.40;101106.84;5083037;28;20366;-89
2022/03/02 03:46:43;;;;;;;21.45;12.52;;;;;;;0.98;83.60;101105.88;5081512;28;20020;-90
2022/03/02 03:49:09;;;;;;;23.30;13.73;;;;;;;0.92;83.91;101112.75;5081944;28;20081;-89
2022/03/02 03:51:35;;;;;;;21.45;12.10;;;;;;;0.89;84.01;101108.31;5080927;28;20043;-89
2022/03/02 03:54:00;;;;;;;23.08;13.40;;;;;;;0.84;84.33;101110.84;5082640;28;20099;-90
2022/03/02 03:56:27;;;;;;;21.95;13.55;;;;;;;0.85;84.83;101103.84;5081600;28;20017;-89
2022/03/02 03:58:53;;;;;;;21.02;12.85;;;;;;;0.82;84.34;101101.13;5081481;28;20029;-89
2022/03/02 04:01:19;;;;;;;22.98;12.77;;;;;;;0.80;86.22;101094.97;5081900;28;20120;-90
2022/03/02 04:03:44;;;;;;;20.88;13.25;;;;;;;0.74;86.10;101091.34;5082106;28;20044;-89
2022/03/02 04:06:09;;;;;;;22.60;13.55;;;;;;;0.69;85.93;101084.19;5080528;28;20032;-89
2022/03/02 04:08:34;;;;;;;24.92;13.57;;;;;;;0.61;85.82;101086.63;5080894;28;20120;-89
2022/03/02 04:11:00;;;;;;;24.88;13.90;;;;;;;0.54;85.75;101089.09;5080487;28;20021;-91
2022/03/02 04:13:25;;;;;;;23.80;13.50;;;;;;;0.48;86.09;101088.97;5080304;28;20032;-90
2022/03/02 04:15:51;;;;;;;24.30;13.07;;;;;;;0.39;86.54;101086.09;5078151;28;20539;-89
2022/03/02 04:18:16;;;;;;;21.75;12.10;;;;;;;0.42;86.60;101091.41;5079818;28;20019;-90
2022/03/02 04:20:41;;;;;;;23.08;13.50;;;;;;;0.37;87.02;101082.53;5081227;28;20028;-89
2022/03/02 04:23:08;;;;;;;21.73;12.55;;;;;;;0.35;86.86;101078.97;5080562;28;20048;-89
2022/03/02 04:25:34;;;;;;;23.15;12.70;;;;;;;0.35;86.89;101086.88;5081628;28;20048;-90
2022/03/02 04:27:59;;;;;;;22.13;13.02;;;;;;;0.35;88.29;101089.50;5078876;28;20043;-90
2022/03/02 04:30:27;;;;;;;24.10;12.45;;;;;;;0.35;88.55;101081.63;5078993;28;20033;-89
2022/03/02 04:32:53;;;;;;;22.42;12.68;;;;;;;0.34;88.66;101078.09;5078745;28;20031;-89
2022/03/02 04:35:18;;;;;;;22.48;12.57;;;;;;;0.35;88.86;101078.97;5077941;28;20024;-90
2022/03/02 04:37:43;;;;;;;24.98;12.93;;;;;;;0.34;89.27;101078.09;5077473;28;20047;-89
2022/03/02 04:40:11;;;;;;;20.05;12.30;;;;;;;0.31;88.95;101078.91;5079769;28;20510;-89
2022/03/02 04:42:37;;;;;;;20.45;11.88;;;;;;;0.28;88.62;101068.34;5077654;28;20048;-89
2022/03/02 04:45:04;;;;;;;20.92;11.82;;;;;;;0.25;89.05;101068.25;5076804;28;20633;-89
2022/03/02 04:47:29;;;;;;;23.27;12.40;;;;;;;0.24;88.93;101069.09;5078210;28;20028;-90
2022/03/02 04:50:03;;;;;;;21.92;12.40;;;;;;;0.22;88.70;101062.91;5076533;28;20388;-89
2022/03/02 04:52:28;;;;;;;;;;;;;;;0.18;88.15;101061.06;5079024;28;20020;-89
2022/03/02 04:55:05;;;;;;;21.35;12.57;;;;;;;0.12;89.10;101060.91;5078561;28;20437;-90
2022/03/02 04:57:32;;;;;;;21.13;10.85;;;;;;;0.08;88.97;101055.56;5076588;28;20020;-89
2022/03/02 04:59:57;;;;;;;22.60;11.88;;;;;;;0.03;88.86;101057.19;5076688;28;20023;-89
2022/03/02 05:02:22;;;;;;;24.85;12.18;;;;;;;-0.01;88.37;101055.34;5080128;28;20029;-88
2022/03/02 05:04:49;;;;;;;22.95;12.30;;;;;;;-0.02;89.30;101058.78;5086587;28;20025;-89
2022/03/02 05:07:15;;;;;;;20.80;12.23;;;;;;;-0.06;89.09;101056.94;5079314;28;20023;-90
2022/03/02 05:09:40;;;;;;;22.67;12.27;;;;;;;-0.08;89.76;101049.03;5077177;28;20028;-89
2022/03/02 05:12:06;;;;;;;20.67;11.38;;;;;;;-0.12;90.30;101048.06;5080528;28;20020;-88
2022/03/02 05:14:31;;;;;;;21.55;12.43;;;;;;;-0.13;90.01;101051.53;5077480;28;20016;-89
2022/03/02 05:16:56;;;;;;;27.20;13.27;;;;;;;-0.14;91.29;101051.50;5085979;28;20465;-90
2022/03/02 05:19:22;;;;;;;28.10;12.48;;;;;;;-0.13;90.78;101048.03;5083393;28;20013;-90
2022/03/02 05:21:47;;;;;;;22.85;11.77;;;;;;;-0.12;91.67;101048.06;5082724;28;20028;-88
2022/03/02 05:24:14;;;;;;;23.63;12.95;;;;;;;-0.11;91.20;101048.97;5079297;28;20024;-88
2022/03/02 05:26:39;;;;;;;23.05;12.70;;;;;;;-0.05;91.64;101045.63;5079092;28;20024;-90
2022/03/02 05:29:05;;;;;;;23.48;12.05;;;;;;;-0.02;92.24;101048.28;5083620;28;20070;-90
2022/03/02 05:31:30;;;;;;;23.35;12.95;;;;;;;-0.01;91.07;101045.72;5086841;28;20032;-90
2022/03/02 05:33:56;;;;;;;24.15;12.30;;;;;;;0.05;91.35;101044.97;5074705;28;20035;-91
2022/03/02 05:36:22;;;;;;;25.65;12.73;;;;;;;0.10;91.90;101038.09;5079762;28;20031;-88
2022/03/02 05:38:54;;;;;;;20.05;12.38;;;;;;;0.14;91.19;101048.69;5073605;28;20024;-88
2022/03/02 05:41:21;;;;;;;24.10;13.55;;;;;;;0.13;90.65;101034.66;5073936;28;20028;-88
2022/03/02 05:43:46;;;;;;;24.48;13.38;;;;;;;0.14;89.87;101043.44;5074171;28;20405;-88
2022/03/02 05:46:12;;;;;;;24.35;12.70;;;;;;;0.07;89.97;101043.31;5072499;28;20024;-90
2022/03/02 05:48:38;;;;;;;25.23;13.50;;;;;;;0.14;90.74;101043.44;5073593;28;20052;-89
2022/03/02 05:51:04;;;;;;;24.10;13.18;;;;;;;0.17;90.50;101038.28;5072744;28;20032;-88
2022/03/02 05:53:29;;;;;;;22.45;12.73;;;;;;;0.15;90.61;101045.22;5072857;28;20031;-89
2022/03/02 05:55:54;;;;;;;25.20;12.68;;;;;;;0.08;89.32;101047.69;5081736;28;20032;-89
2022/03/02 05:58:20;;;;;;;20.25;12.05;;;;;;;0.10;89.46;101043.34;5084444;28;20016;-90
2022/03/02 06:00:45;;;;;;;22.90;12.55;;;;;;;0.07;88.52;101053.81;5084046;28;20036;-92
2022/03/02 06:03:10;;;;;;;25.50;13.23;;;;;;;0.09;88.67;101045.94;5091184;28;20017;-90
2022/03/02 06:05:36;;;;;;;22.05;12.52;;;;;;;0.10;87.87;101047.75;5095962;28;20016;-93
2022/03/02 06:08:01;;;;;;;20.13;11.95;;;;;;;0.12;87.93;101043.41;5092915;28;20466;-91
2022/03/02 06:10:30;;;;;;;20.35;12.15;;;;;;;0.15;87.92;101045.22;5087050;28;20024;-89
2022/03/02 06:12:55;;;;;;;20.10;11.63;;;;;;;0.18;88.32;101047.94;5093127;28;20031;-91
2022/03/02 06:15:21;;;;;;;22.70;11.82;;;;;;;0.16;87.55;101052.25;5090039;28;20114;-91
2022/03/02 06:17:46;;;;;;;23.33;12.23;;;;;;;0.17;87.58;101051.41;5094088;28;20017;-89
2022/03/02 06:20:12;;;;;;;24.25;12.40;;;;;;;0.20;87.06;101059.38;5094547;28;20044;-90
2022/03/02 06:22:38;;;;;;;23.67;12.88;;;;;;;0.21;86.91;101056.75;5092175;28;20029;-89
2022/03/02 06:25:06;;;;;;;22.08;12.13;;;;;;;0.22;87.09;101058.56;5090195;28;20020;-90
2022/03/02 06:27:33;;;;;;;24.73;12.52;;;;;;;0.22;88.60;101052.41;5098351;28;20013;-90
2022/03/02 06:29:58;;;;;;;27.55;13.27;;;;;;;0.24;88.80;101060.31;5085042;28;20401;-89
2022/03/02 06:32:24;;;;;;;23.52;12.68;;;;;;;0.23;88.40;101064.72;5077722;28;20033;-89
2022/03/02 06:34:49;;;;;;;25.70;12.82;;;;;;;0.25;89.48;101057.75;5077985;28;20032;-88
2022/03/02 06:37:15;;;;;;;21.55;12.38;;;;;;;0.27;89.61;101055.16;5078047;28;20028;-88
2022/03/02 06:39:40;;;;;;;26.23;12.82;;;;;;;0.25;89.27;101068.25;5077577;28;20021;-88
2022/03/02 06:42:23;;;;;;;24.33;12.27;;;;;;;0.28;89.78;101056.94;5080941;28;20032;-89
2022/03/02 06:45:11;;;;;;;22.27;12.02;;;;;;;0.29;88.64;101064.84;5080226;28;20572;-89
2022/03/02 06:47:51;;;;;;;20.90;12.02;;;;;;;0.33;88.28;101058.84;5077803;28;20412;-88
2022/03/02 06:50:23;;;;;;;20.58;11.88;;;;;;;0.37;87.88;101062.41;5077490;28;20397;-90
2022/03/02 06:52:53;;;;;;;21.08;11.70;;;;;;;0.41;88.02;101052.88;5078615;28;20032;-91
2022/03/02 06:55:19;;;;;;;20.05;12.18;;;;;;;0.44;87.64;101055.56;5081613;28;20031;-91
2022/03/02 06:58:12;;;;;;;21.40;12.55;;;;;;;0.50;87.20;101052.19;5078084;28;20021;-89
2022/03/02 07:00:39;;;;;;;23.25;12.55;;;;;;;0.50;86.67;101058.34;5077673;28;20033;-89
2022/03/02 07:03:07;;;;;;;20.75;12.20;;;;;;;0.52;86.59;101067.16;5076045;28;20047;-89
2022/03/02 07:05:33;;;;;;;24.02;12.68;;;;;;;0.57;87.07;101069.03;5076601;28;20473;-90
2022/03/02 07:08:00;;;;;;;22.48;13.60;;;;;;;0.60;87.31;101066.44;5071275;28;20133;-90
2022/03/02 07:10:26;;;;;;;22.73;12.38;;;;;;;0.68;88.37;101072.78;5072919;28;20036;-90
2022/03/02 07:12:52;;;;;;;24.17;12.68;;;;;;;0.77;88.35;101070.34;5074512;28;20032;-90
2022/03/02 07:15:17;;;;;;;26.13;13.32;;;;;;;0.86;87.77;101067.06;5074034;28;20027;-91
2022/03/02 07:17:42;;;;;;;25.25;13.85;;;;;;;0.91;86.98;101064.53;5075203;28;20045;-90
2022/03/02 07:20:11;;;;;;;24.23;12.55;;;;;;;0.86;85.67;101076.69;5074344;28;20527;-90
2022/03/02 07:22:57;;;;;;;23.05;12.68;;;;;;;0.89;85.16;101072.41;5075764;28;20017;-90
2022/03/02 07:25:29;;;;;;;24.13;13.30;;;;;;;0.98;85.71;101076.97;5074939;28;20029;-90
2022/03/02 07:27:56;;;;;;;24.65;12.95;;;;;;;1.02;85.93;101074.41;5088716;28;20016;-89
2022/03/02 07:30:23;;;;;;;22.92;13.07;;;;;;;1.07;85.30;101076.28;5080230;28;20036;-90
2022/03/02 07:32:53;;;;;;;25.58;13.20;;;;;;;1.13;85.82;101075.53;5080288;28;20035;-90
2022/03/02 07:35:18;;;;;;;25.50;13.73;;;;;;;1.17;85.97;101066.84;5087904;28;20088;-90
2022/03/02 07:37:45;;;;;;;21.83;13.05;;;;;;;1.13;85.91;101074.66;5081245;28;20056;-90
2022/03/02 07:40:11;;;;;;;23.95;12.68;;;;;;;1.15;85.39;101079.09;5079459;28;20063;-89
2022/03/02 07:42:37;;;;;;;30.75;15.70;;;;;;;1.08;86.88;101082.44;5078643;28;20020;-90
2022/03/02 07:45:05;;;;;;;30.10;14.25;;;;;;;0.98;88.97;101086.63;5078219;28;20115;-89
2022/03/02 07:47:30;;;;;;;23.60;13.25;;;;;;;0.98;88.98;101079.59;5077538;28;20028;-90
2022/03/02 07:49:56;;;;;;;25.10;13.68;;;;;;;0.94;88.40;101077.75;5080786;28;20059;-89
2022/03/02 07:52:25;;;;;;;23.15;13.40;;;;;;;0.92;89.15;101076.84;5078820;28;20125;-89
2022/03/02 07:54:57;;;;;;;23.25;13.25;;;;;;;0.95;89.11;101082.16;5082103;28;20060;-90
2022/03/02 07:57:23;;;;;;;25.40;12.85;;;;;;;0.97;88.28;101083.09;5086239;28;20043;-89
2022/03/02 07:59:50;;;;;;;26.67;13.23;;;;;;;1.01;86.84;101089.28;5081872;28;20068;-90
2022/03/02 08:02:19;;;;;;;25.90;13.13;;;;;;;1.00;85.99;101080.53;5078670;28;20024;-90
2022/03/02 08:04:50;;;;;;;23.50;13.05;;;;;;;1.01;86.45;101081.41;5074632;28;20017;-90
2022/03/02 08:07:15;;;;;;;30.10;13.05;;;;;;;0.93;86.90;101081.22;5073185;28;20040;-90
2022/03/02 08:09:41;;;;;;;25.90;12.52;;;;;;;0.95;86.02;101079.53;5073552;28;20067;-88
2022/03/02 08:12:07;;;;;;;24.85;13.32;;;;;;;1.00;86.20;101075.28;5073659;28;20027;-90
2022/03/02 08:14:33;;;;;;;23.50;12.48;;;;;;;1.06;86.65;101073.59;5073251;28;20438;-90
2022/03/02 08:16:59;;;;;;;23.80;12.45;;;;;;;1.15;87.08;101078.19;5073225;28;20021;-89
2022/03/02 08:19:24;;;;;;;21.90;12.38;;;;;;;1.29;87.25;101071.47;5074688;28;20417;-90
2022/03/02 08:21:58;;;;;;;19.98;12.38;;;;;;;1.34;84.93;101072.47;5074584;28;20031;-90
2022/03/02 08:24:27;;;;;;;21.63;12.77;;;;;;;1.32;85.09;101065.38;5074575;28;20031;-90
2022/03/02 08:26:56;;;;;;;21.33;12.43;;;;;;;1.50;84.79;101069.25;5073115;28;20021;-90
2022/03/02 08:29:25;;;;;;;24.85;12.90;;;;;;;1.53;84.86;101067.59;5073336;28;20462;-89
2022/03/02 08:31:50;;;;;;;21.80;12.38;;;;;;;1.67;84.64;101062.59;5071889;28;20025;-90
2022/03/02 08:34:16;;;;;;;18.48;11.27;;;;;;;1.78;82.93;101054.00;5073349;28;20027;-89
2022/03/02 08:36:43;;;;;;;23.23;11.30;;;;;;;1.94;81.15;101057.81;5072900;28;20025;-90
2022/03/02 08:39:11;;;;;;;22.13;11.88;;;;;;;2.16;82.10;101052.03;5073085;28;20020;-89
2022/03/02 08:41:39;;;;;;;20.25;11.90;;;;;;;2.34;81.97;101060.28;5073140;28;20538;-89
2022/03/02 08:44:22;;;;;;;21.42;11.80;;;;;;;2.55;78.56;101043.00;5072840;28;20039;-90
2022/03/02 08:46:49;;;;;;;17.33;10.75;;;;;;;2.73;76.25;101040.63;5072851;28;20040;-89
2022/03/02 08:49:16;;;;;;;19.50;10.65;;;;;;;2.92;73.58;101040.88;5073987;28;20485;-90
2022/03/02 08:51:42;;;;;;;19.02;11.60;;;;;;;3.09;74.35;101044.63;5072681;28;20461;-89
2022/03/02 08:54:11;;;;;;;19.88;11.98;;;;;;;3.28;73.62;101036.06;5072614;28;20028;-90
2022/03/02 08:56:38;;;;;;;19.40;11.85;;;;;;;3.42;73.44;101034.50;5074027;28;20040;-89
2022/03/02 08:59:05;;;;;;;20.08;11.82;;;;;;;3.58;73.08;101030.25;5072665;28;20025;-90
2022/03/02 09:01:31;;;;;;;18.08;10.73;;;;;;;3.62;67.75;101032.94;5071254;28;20104;-89
2022/03/02 09:04:01;;;;;;;18.52;10.45;;;;;;;3.82;66.80;101035.78;5072582;28;20481;-89
2022/03/02 09:06:30;;;;;;;16.50;10.68;;;;;;;3.81;62.14;101044.59;5072524;28;20032;-90
2022/03/02 09:08:55;;;;;;;16.95;10.30;;;;;;;3.87;64.47;101044.66;5072330;28;20044;-90
2022/03/02 09:11:21;;;;;;;20.02;10.93;;;;;;;3.90;63.70;101039.41;5073744;28;20063;-90
2022/03/02 09:13:49;;;;;;;16.60;9.98;;;;;;;3.97;62.88;101039.47;5072448;28;20473;-90
2022/03/02 09:16:14;;;;;;;18.67;10.90;;;;;;;4.09;64.19;101043.97;5073432;28;20473;-91
2022/03/02 09:18:40;;;;;;;15.32;9.65;;;;;;;3.88;63.55;101050.81;5073828;28;20035;-90
2022/03/02 09:21:06;;;;;;;17.67;10.82;;;;;;;4.05;63.87;101047.44;5073787;28;20086;-90
2022/03/02 09:23:46;;;;;;;17.35;11.13;;;;;;;4.31;63.91;101045.03;5074556;28;20021;-90
2022/03/02 09:26:21;;;;;;;18.08;10.93;;;;;;;4.23;62.96;101060.84;5072559;28;20029;-89
2022/03/02 09:28:52;;;;;;;19.85;11.63;;;;;;;4.19;65.61;101060.81;5073981;28;20035;-90
2022/03/02 09:31:22;;;;;;;21.08;11.60;;;;;;;3.95;71.38;101067.59;5073386;28;20040;-90
2022/03/02 09:33:53;;;;;;;17.63;12.05;;;;;;;4.09;69.51;101060.72;5072490;28;20020;-90
2022/03/02 09:36:22;;;;;;;20.80;11.50;;;;;;;4.13;69.77;101069.56;5072088;28;20028;-91
2022/03/02 09:38:49;;;;;;;19.20;11.45;;;;;;;4.35;65.68;101072.41;5072278;28;20048;-91
2022/03/02 09:41:23;;;;;;;19.35;11.02;;;;;;;4.51;65.80;101073.41;5073009;28;20488;-91
2022/03/02 09:43:50;;;;;;;21.25;11.88;;;;;;;4.36;64.19;101066.22;5072285;28;20485;-90
2022/03/02 09:46:18;;;;;;;21.70;11.82;;;;;;;4.19;63.94;101061.69;5075610;28;20029;-91
2022/03/02 09:48:50;;;;;;;19.02;11.13;;;;;;;4.36;65.61;101069.75;5077341;28;20020;-90
2022/03/02 09:51:28;;;;;;;17.70;10.50;;;;;;;4.27;64.56;101068.81;5075874;28;20024;-90
2022/03/02 09:53:54;;;;;;;19.58;10.90;;;;;;;4.23;65.16;101060.84;5076059;28;20024;-90
2022/03/02 09:56:22;;;;;;;18.20;9.98;;;;;;;4.35;63.58;101057.44;5076180;28;20073;-90
2022/03/02 09:58:51;;;;;;;18.42;10.70;;;;;;;4.38;65.16;101063.63;5076314;28;20052;-90
2022/03/02 10:01:22;;;;;;;19.23;10.25;;;;;;;4.46;60.74;101057.50;5077135;28;20480;-90
2022/03/02 10:03:50;;;;;;;16.40;10.30;;;;;;;4.40;60.18;101060.09;5075879;28;20028;-91
2022/03/02 10:06:18;;;;;;;17.83;10.65;;;;;;;4.55;61.16;101047.88;5075668;28;20028;-89
2022/03/02 10:08:54;;;;;;;17.35;10.27;;;;;;;4.60;60.98;101048.78;5075976;28;20045;-91
2022/03/02 10:11:24;;;;;;;16.17;9.88;;;;;;;4.98;60.22;101051.66;5075846;28;20020;-89
2022/03/02 10:13:58;;;;;;;16.33;10.38;;;;;;;5.32;60.46;101050.94;5077575;28;20023;-90
2022/03/02 10:16:27;;;;;;;15.40;10.00;;;;;;;5.29;57.62;101051.81;5075734;28;20028;-90
2022/03/02 10:18:56;;;;;;;16.95;10.77;;;;;;;5.30;56.65;101053.59;5077049;28;20054;-90
2022/03/02 10:21:40;;;;;;;17.73;10.00;;;;;;;5.36;58.15;101048.31;5075401;28;20028;-89
2022/03/02 10:24:12;;;;;;;;;;;;;;;5.83;56.80;101050.22;5075736;28;20381;-90
2022/03/02 10:26:48;;;;;;;17.10;10.07;;;;;;;5.68;56.84;101046.66;5075305;28;19998;-91
2022/03/02 10:29:31;;;;;;;15.70;10.13;;;;;;;5.83;56.62;101042.25;5076441;28;20492;-90
2022/03/02 10:32:08;;;;;;;16.88;9.75;;;;;;;6.22;55.96;101038.81;5075406;28;20029;-91
2022/03/02 10:34:51;;;;;;;18.00;10.23;;;;;;;6.50;55.17;101038.78;5077521;28;20025;-90
2022/03/02 10:37:19;;;;;;;14.88;9.18;;;;;;;6.77;54.70;101042.31;5078781;28;20021;-89
2022/03/02 10:39:54;;;;;;;16.02;9.60;;;;;;;6.86;55.70;101040.50;5077723;28;20028;-89
2022/03/02 10:42:31;;;;;;;15.43;8.82;;;;;;;7.03;52.58;101038.72;5078274;28;20028;-89
2022/03/02 10:45:11;;;;;;;18.52;9.90;;;;;;;7.22;52.40;101033.31;5075577;28;20044;-89
2022/03/02 10:48:21;;;;;;;16.25;9.55;;;;;;;7.52;51.74;101029.63;5076309;28;20488;-88
2022/03/02 10:50:58;;;;;;;15.50;9.50;;;;;;;7.81;50.79;101025.91;5069840;28;20048;-90
2022/03/02 10:53:30;;;;;;;14.55;9.35;;;;;;;7.79;51.05;101028.59;5074887;28;20064;-90
2022/03/02 10:56:00;;;;;;;18.02;9.43;;;;;;;8.60;50.45;101027.09;5075521;28;20108;-90
2022/03/02 10:58:33;;;;;;;15.90;9.38;;;;;;;8.64;47.97;101032.38;5075487;28;20445;-90
2022/03/02 11:01:07;;;;;;;;;;;;;;;8.37;48.62;101030.84;5077004;28;20024;-90
2022/03/02 11:03:51;;;;;;;13.32;9.13;;;;;;;8.28;47.72;101028.22;5075083;28;19908;-90
2022/03/02 11:06:17;;;;;;;;;;;;;;;8.37;47.72;101022.84;5076928;28;20032;-90
2022/03/02 11:08:43;;;;;;;17.30;8.88;;;;;;;8.54;47.84;101029.78;5075830;28;19915;-90
2022/03/02 11:11:11;;;;;;;18.60;8.98;;;;;;;8.94;46.67;101030.31;5075468;28;20028;-91
2022/03/02 11:13:37;;;;;;;13.52;8.75;;;;;;;8.67;46.42;101021.69;5075389;28;20036;-91
2022/03/02 11:16:05;;;;;;;12.13;8.23;;;;;;;8.99;44.63;101025.81;5074644;28;20029;-90
2022/03/02 11:18:42;;;;;;;14.32;8.48;;;;;;;8.96;44.16;101024.94;5074834;28;20115;-90
2022/03/02 11:21:10;;;;;;;13.70;8.48;;;;;;;9.10;44.51;101016.78;5075916;28;20095;-88
2022/03/02 11:23:44;;;;;;;13.70;8.30;;;;;;;9.53;41.72;101012.69;5075158;28;20111;-90
2022/03/02 11:26:14;;;;;;;13.50;8.27;;;;;;;9.63;41.71;101005.44;5076473;28;20020;-89